Time;durP1;ratioP1;P1;durP2;ratioP2;P2;SDS_P1;SDS_P2;PMS_P1;PMS_P2;Temp;Humidity;BMP_temperature;BMP_pressure;BME280_temperature;BME280_humidity;BME280_pressure;Samples;Min_cycle;Max_cycle;Signal;HPM_P1;HPM_P2
2023/10/23 00:00:33;;;;;;;5.33;3.63;;;;;;;9.54;100.00;97872.13;5074674;28;20215;-75
2023/10/23 00:02:59;;;;;;;4.13;2.70;;;;;;;9.52;100.00;97876.88;5075005;28;20205;-75
2023/10/23 00:05:25;;;;;;;4.83;3.27;;;;;;;9.49;100.00;97871.16;5074805;28;20656;-75
2023/10/23 00:07:52;;;;;;;9.60;3.20;;;;;;;9.47;100.00;97868.75;5074566;28;20232;-75
2023/10/23 00:10:18;;;;;;;5.77;3.23;;;;;;;9.45;100.00;97875.25;5074744;28;20212;-75
2023/10/23 00:12:44;;;;;;;4.00;3.27;;;;;;;9.47;100.00;97865.25;5074441;28;20205;-75
2023/10/23 00:15:11;;;;;;;6.40;3.37;;;;;;;9.42;100.00;97867.75;5074406;28;20220;-75
2023/10/23 00:17:37;;;;;;;8.87;3.40;;;;;;;9.37;100.00;97865.72;5075250;28;20239;-75
2023/10/23 00:20:04;;;;;;;6.97;3.30;;;;;;;9.39;100.00;97871.66;5074694;28;20208;-75
2023/10/23 00:22:30;;;;;;;7.93;3.17;;;;;;;9.26;100.00;97865.63;5074311;28;20204;-75
2023/10/23 00:24:57;;;;;;;4.60;3.37;;;;;;;9.24;100.00;97867.69;5074684;28;20201;-75
2023/10/23 00:27:23;;;;;;;7.13;3.43;;;;;;;9.25;100.00;97879.91;5074112;28;20235;-75
2023/10/23 00:29:50;;;;;;;7.37;3.43;;;;;;;9.25;100.00;97883.38;5074475;28;20211;-75
2023/10/23 00:32:16;;;;;;;7.40;3.40;;;;;;;9.15;100.00;97888.34;5074454;28;20204;-75
2023/10/23 00:34:42;;;;;;;7.00;3.97;;;;;;;9.13;100.00;97889.56;5073783;28;20212;-75
2023/10/23 00:37:09;;;;;;;6.90;3.83;;;;;;;9.13;100.00;97887.75;5074194;28;20557;-75
2023/10/23 00:39:35;;;;;;;7.20;3.77;;;;;;;9.07;100.00;97891.25;5074277;28;20231;-75
2023/10/23 00:42:01;;;;;;;5.37;3.70;;;;;;;9.13;100.00;97898.34;5074057;28;20671;-75
2023/10/23 00:44:28;;;;;;;7.37;3.23;;;;;;;9.00;100.00;97885.16;5073947;28;20667;-75
2023/10/23 00:46:55;;;;;;;6.60;3.57;;;;;;;9.01;100.00;97883.34;5074022;28;20224;-75
2023/10/23 00:49:22;;;;;;;6.40;3.60;;;;;;;9.04;100.00;97894.31;5074132;28;20208;-75
2023/10/23 00:51:48;;;;;;;8.10;3.50;;;;;;;8.98;100.00;97883.75;5074187;28;20205;-75
2023/10/23 00:54:15;;;;;;;6.67;3.60;;;;;;;8.92;100.00;97881.97;5074010;28;20232;-75
2023/10/23 00:56:42;;;;;;;4.63;3.60;;;;;;;9.00;100.00;97885.16;5073916;28;20319;-75
2023/10/23 00:59:10;;;;;;;6.33;3.63;;;;;;;9.00;100.00;97879.88;5073909;28;20224;-75
2023/10/23 01:01:38;;;;;;;6.23;3.70;;;;;;;9.03;100.00;97878.63;5073643;28;20213;-75
2023/10/23 01:04:05;;;;;;;4.47;3.60;;;;;;;9.00;100.00;97882.50;5073826;28;20200;-75
2023/10/23 01:06:32;;;;;;;4.00;3.30;;;;;;;8.97;100.00;97879.47;5073871;28;20200;-75
2023/10/23 01:08:59;;;;;;;6.00;3.70;;;;;;;8.98;100.00;97881.09;5073760;28;20231;-75
2023/10/23 01:11:25;;;;;;;6.27;3.63;;;;;;;9.02;100.00;97877.00;5073494;28;20549;-75
2023/10/23 01:13:51;;;;;;;7.27;3.53;;;;;;;9.01;100.00;97875.38;5073764;28;20205;-75
2023/10/23 01:16:18;;;;;;;7.53;3.10;;;;;;;8.97;100.00;97869.66;5073654;28;20216;-75
2023/10/23 01:18:44;;;;;;;5.03;3.20;;;;;;;8.95;100.00;97862.97;5073633;28;20655;-75
2023/10/23 01:21:10;;;;;;;6.60;3.77;;;;;;;8.91;100.00;97857.28;5073788;28;20201;-75
2023/10/23 01:23:37;;;;;;;7.07;3.33;;;;;;;8.89;100.00;97862.00;5055895;28;20243;-75
2023/10/23 01:26:03;;;;;;;5.73;3.40;;;;;;;8.95;100.00;97865.63;5073592;28;20208;-75
2023/10/23 01:28:30;;;;;;;5.40;3.47;;;;;;;8.96;100.00;97856.66;5073254;28;20702;-75
2023/10/23 01:30:56;;;;;;;6.00;3.43;;;;;;;8.91;100.00;97875.03;5073568;28;20200;-75
2023/10/23 01:33:22;;;;;;;5.90;3.30;;;;;;;8.92;100.00;97869.50;5073553;28;20211;-75
2023/10/23 01:35:49;;;;;;;6.50;3.50;;;;;;;8.90;100.00;97870.75;5073177;28;20221;-75
2023/10/23 01:38:16;;;;;;;7.07;3.20;;;;;;;8.94;100.00;97864.00;5073146;28;20594;-75
2023/10/23 01:40:42;;;;;;;4.87;3.40;;;;;;;8.79;100.00;97874.06;5073546;28;20204;-75
2023/10/23 01:43:09;;;;;;;8.40;3.73;;;;;;;8.80;100.00;97870.41;5073164;28;20740;-73
2023/10/23 01:45:35;;;;;;;8.57;3.60;;;;;;;8.68;100.00;97870.25;5073421;28;20207;-73
2023/10/23 01:48:02;;;;;;;7.17;3.20;;;;;;;8.56;100.00;97876.44;5073017;28;20760;-73
2023/10/23 01:50:28;;;;;;;5.13;3.10;;;;;;;8.55;100.00;97874.81;5073094;28;20690;-73
2023/10/23 01:52:54;;;;;;;7.97;3.50;;;;;;;8.56;100.00;97871.13;5073383;28;20211;-73
2023/10/23 01:55:21;;;;;;;5.27;3.80;;;;;;;8.58;100.00;97872.53;5073271;28;20224;-73
2023/10/23 01:57:47;;;;;;;7.07;3.30;;;;;;;8.58;100.00;97875.19;5073315;28;20220;-73
2023/10/23 02:00:14;;;;;;;8.23;3.70;;;;;;;8.56;100.00;97871.94;5073168;28;20219;-73
2023/10/23 02:02:41;;;;;;;5.90;3.70;;;;;;;8.58;100.00;97863.78;5073236;28;20201;-73
2023/10/23 02:05:07;;;;;;;6.90;3.50;;;;;;;8.60;100.00;97869.69;5073294;28;20207;-73
2023/10/23 02:07:34;;;;;;;8.47;3.73;;;;;;;8.57;100.00;97873.56;5073138;28;20232;-73
2023/10/23 02:10:00;;;;;;;5.77;3.97;;;;;;;8.63;100.00;97866.59;5072970;28;20193;-73
2023/10/23 02:12:27;;;;;;;8.70;3.87;;;;;;;8.63;100.00;97867.44;5073191;28;20200;-73
2023/10/23 02:14:53;;;;;;;6.00;3.70;;;;;;;8.58;100.00;97864.59;5074884;28;20232;-73
2023/10/23 02:17:21;;;;;;;4.57;3.43;;;;;;;8.58;100.00;97867.25;5076704;28;20307;-73
2023/10/23 02:19:47;;;;;;;7.23;4.10;;;;;;;8.62;100.00;97867.63;5076633;28;20211;-73
2023/10/23 02:22:14;;;;;;;6.30;3.53;;;;;;;8.54;100.00;97862.56;5076878;28;20387;-73
2023/10/23 02:24:40;;;;;;;6.77;3.50;;;;;;;8.56;100.00;97861.31;5076837;28;20239;-73
2023/10/23 02:27:06;;;;;;;6.90;3.73;;;;;;;8.45;100.00;97856.69;5076586;28;20201;-73
2023/10/23 02:29:33;;;;;;;4.50;3.53;;;;;;;8.49;100.00;97855.25;5076762;28;20204;-73
2023/10/23 02:31:59;;;;;;;5.23;3.40;;;;;;;8.32;100.00;97864.69;5076631;28;20205;-73
2023/10/23 02:34:25;;;;;;;9.10;4.07;;;;;;;8.29;100.00;97869.59;5076697;28;20207;-73
2023/10/23 02:36:52;;;;;;;6.43;3.10;;;;;;;8.26;100.00;97864.72;5076559;28;20231;-73
2023/10/23 02:39:18;;;;;;;6.40;3.80;;;;;;;8.27;100.00;97864.50;5076530;28;20225;-73
2023/10/23 02:41:45;;;;;;;5.10;3.23;;;;;;;8.25;100.00;97861.28;5076174;28;20211;-73
2023/10/23 02:44:11;;;;;;;5.87;3.47;;;;;;;8.27;100.00;97863.69;5076533;28;20209;-73
2023/10/23 02:46:38;;;;;;;5.80;3.53;;;;;;;8.23;100.00;97865.94;5076415;28;20204;-73
2023/10/23 02:49:06;;;;;;;7.47;4.17;;;;;;;8.24;100.00;97862.28;5076342;28;20229;-73
2023/10/23 02:51:32;;;;;;;6.93;3.77;;;;;;;8.24;100.00;97864.91;5075922;28;20660;-73
2023/10/23 02:53:59;;;;;;;5.10;3.80;;;;;;;8.28;100.00;97873.28;5076355;28;20205;-73
2023/10/23 02:56:25;;;;;;;5.43;4.00;;;;;;;8.36;100.00;97875.69;5076182;28;20226;-73
2023/10/23 02:58:52;;;;;;;5.73;3.40;;;;;;;8.32;100.00;97869.19;5076285;28;20737;-73
2023/10/23 03:01:21;;;;;;;7.53;4.00;;;;;;;8.20;100.00;97870.81;5075960;28;20213;-73
2023/10/23 03:03:48;;;;;;;7.60;3.90;;;;;;;8.23;100.00;97873.09;5076021;28;20208;-73
2023/10/23 03:06:15;;;;;;;7.03;3.77;;;;;;;8.19;100.00;97869.19;5075809;28;20219;-73
2023/10/23 03:08:42;;;;;;;6.37;3.63;;;;;;;8.24;100.00;97872.06;5075919;28;20587;-73
2023/10/23 03:11:08;;;;;;;6.93;3.27;;;;;;;8.15;100.00;97866.13;5075918;28;20227;-73
2023/10/23 03:13:34;;;;;;;6.27;3.70;;;;;;;8.14;100.00;97869.81;5075515;28;20208;-73
2023/10/23 03:16:01;;;;;;;6.33;4.00;;;;;;;8.12;100.00;97863.09;5075326;28;20226;-73
2023/10/23 03:18:28;;;;;;;7.87;3.97;;;;;;;8.06;100.00;97866.59;5075637;28;20657;-73
2023/10/23 03:21:01;;;;;;;5.70;3.67;;;;;;;8.04;100.00;97866.78;5075790;28;20208;-73
2023/10/23 03:23:31;;;;;;;6.40;3.63;;;;;;;8.00;100.00;97868.22;5075468;28;20661;-73
2023/10/23 03:25:58;;;;;;;6.50;3.80;;;;;;;8.01;100.00;97876.97;5074628;28;20217;-73
2023/10/23 03:28:24;;;;;;;6.63;3.70;;;;;;;8.05;100.00;97867.63;5075521;28;20601;-73
2023/10/23 03:30:51;;;;;;;5.30;3.20;;;;;;;7.98;100.00;97870.28;5075561;28;20204;-73
2023/10/23 03:33:17;;;;;;;9.53;3.70;;;;;;;8.03;100.00;97872.28;5075238;28;20207;-73
2023/10/23 03:35:43;;;;;;;4.47;3.37;;;;;;;7.89;100.00;97876.81;5074941;28;20707;-73
2023/10/23 03:38:10;;;;;;;6.67;3.40;;;;;;;7.99;100.00;97876.38;5075414;28;20225;-73
2023/10/23 03:40:36;;;;;;;5.60;3.60;;;;;;;7.97;100.00;97870.47;5075201;28;20208;-73
2023/10/23 03:43:03;;;;;;;9.67;4.30;;;;;;;8.05;100.00;97873.69;5075396;28;20200;-74
2023/10/23 03:45:29;;;;;;;6.03;3.63;;;;;;;8.17;100.00;97874.69;5075202;28;20208;-74
2023/10/23 03:47:56;;;;;;;5.40;3.67;;;;;;;8.12;100.00;97874.50;5075152;28;20319;-74
2023/10/23 03:50:22;;;;;;;8.43;3.67;;;;;;;8.13;100.00;97872.66;5074820;28;20667;-74
2023/10/23 03:52:48;;;;;;;7.23;4.03;;;;;;;8.11;100.00;97861.47;5074618;28;20692;-73
2023/10/23 03:55:15;;;;;;;7.63;4.07;;;;;;;8.15;100.00;97866.13;5075046;28;20217;-73
2023/10/23 03:57:41;;;;;;;8.73;3.63;;;;;;;8.13;100.00;97867.38;5074389;28;20717;-73
2023/10/23 04:00:10;;;;;;;6.80;3.77;;;;;;;8.14;100.00;97858.44;5074644;28;20266;-73
2023/10/23 04:02:36;;;;;;;9.03;3.40;;;;;;;8.06;100.00;97858.66;5074315;28;20208;-74
2023/10/23 04:05:03;;;;;;;6.37;3.80;;;;;;;8.07;100.00;97862.91;5074467;28;20205;-74
2023/10/23 04:07:29;;;;;;;6.37;4.03;;;;;;;8.09;100.00;97864.34;5074294;28;20790;-74
2023/10/23 04:09:56;;;;;;;9.03;3.97;;;;;;;8.04;100.00;97860.66;5074552;28;20566;-74
2023/10/23 04:12:22;;;;;;;7.90;4.03;;;;;;;7.98;100.00;97853.56;5074760;28;20204;-74
2023/10/23 04:14:48;;;;;;;7.10;3.97;;;;;;;7.94;100.00;97850.53;5074535;28;20205;-74
2023/10/23 04:17:15;;;;;;;8.50;3.90;;;;;;;7.98;100.00;97850.91;5074371;28;20233;-74
2023/10/23 04:19:41;;;;;;;9.60;4.17;;;;;;;7.82;100.00;97857.47;5074500;28;20209;-74
2023/10/23 04:22:08;;;;;;;5.57;3.60;;;;;;;7.90;100.00;97845.84;5075056;28;20200;-74
2023/10/23 04:24:33;;;;;;;7.23;4.07;;;;;;;7.81;100.00;97849.72;5074129;28;20214;-74
2023/10/23 04:26:59;;;;;;;8.50;3.90;;;;;;;7.77;100.00;97849.34;5074075;28;20201;-73
2023/10/23 04:29:26;;;;;;;7.53;4.20;;;;;;;7.81;100.00;97852.38;5074265;28;20230;-73
2023/10/23 04:31:52;;;;;;;6.57;3.77;;;;;;;7.76;100.00;97847.72;5074372;28;20572;-73
2023/10/23 04:34:18;;;;;;;9.70;3.93;;;;;;;7.73;100.00;97848.13;5074323;28;20597;-73
2023/10/23 04:36:45;;;;;;;8.40;3.67;;;;;;;7.64;100.00;97840.63;5073817;28;20718;-73
2023/10/23 04:39:11;;;;;;;8.73;3.90;;;;;;;7.66;100.00;97841.22;5073236;28;20315;-73
2023/10/23 04:41:37;;;;;;;6.57;3.77;;;;;;;7.66;100.00;97842.03;5073716;28;20205;-73
2023/10/23 04:44:04;;;;;;;6.57;3.77;;;;;;;7.65;100.00;97844.88;5073287;28;20201;-73
2023/10/23 04:46:31;;;;;;;6.20;4.00;;;;;;;7.68;100.00;97844.44;5073342;28;20257;-73
2023/10/23 04:48:57;;;;;;;7.30;3.83;;;;;;;7.64;100.00;97838.75;5073697;28;20239;-74
2023/10/23 04:51:23;;;;;;;9.10;4.20;;;;;;;7.72;100.00;97833.25;5073489;28;20689;-74
2023/10/23 04:53:50;;;;;;;5.70;3.83;;;;;;;7.81;100.00;97831.19;5073357;28;20520;-74
2023/10/23 04:56:16;;;;;;;5.77;3.30;;;;;;;7.78;100.00;97840.38;5073767;28;20257;-73
2023/10/23 04:58:43;;;;;;;6.13;3.50;;;;;;;7.77;100.00;97833.47;5073424;28;20228;-73
2023/10/23 05:01:16;;;;;;;4.70;3.33;;;;;;;7.75;100.00;97827.56;5073161;28;20675;-73
2023/10/23 05:03:43;;;;;;;5.10;3.47;;;;;;;7.70;100.00;97821.25;5073497;28;20209;-73
2023/10/23 05:06:09;;;;;;;5.03;3.43;;;;;;;7.73;100.00;97831.41;5073294;28;20284;-73
2023/10/23 05:08:36;;;;;;;7.97;3.37;;;;;;;7.72;100.00;97825.31;5073005;28;20312;-73
2023/10/23 05:11:07;;;;;;;5.20;3.60;;;;;;;7.71;100.00;97825.53;5074073;28;20551;-73
2023/10/23 05:13:33;;;;;;;6.90;3.43;;;;;;;7.62;100.00;97818.81;5073092;28;20206;-73
2023/10/23 05:16:05;;;;;;;4.37;3.20;;;;;;;7.53;100.00;97810.31;5072741;28;20205;-73
2023/10/23 05:18:35;;;;;;;6.60;3.27;;;;;;;7.55;100.00;97807.47;5073060;28;20228;-73
2023/10/23 05:21:12;;;;;;;8.03;3.20;;;;;;;7.53;100.00;97814.75;5073447;28;20205;-73
2023/10/23 05:23:40;;;;;;;6.23;3.40;;;;;;;7.43;100.00;97824.94;5072985;28;20206;-74
2023/10/23 05:26:08;;;;;;;8.30;3.87;;;;;;;7.48;100.00;97825.16;5072786;28;20203;-74
2023/10/23 05:28:34;;;;;;;4.50;3.13;;;;;;;7.42;100.00;97825.97;5073428;28;20757;-74
2023/10/23 05:31:00;;;;;;;5.57;3.33;;;;;;;7.33;100.00;97827.19;5073284;28;20208;-73
2023/10/23 05:33:27;;;;;;;6.43;3.23;;;;;;;7.28;100.00;97817.22;5072950;28;20621;-73
2023/10/23 05:36:11;;;;;;;5.30;3.53;;;;;;;7.24;100.00;97823.13;5074009;28;20250;-73
2023/10/23 05:38:39;;;;;;;5.90;3.40;;;;;;;7.24;100.00;97820.50;5072589;28;20715;-73
2023/10/23 05:41:07;;;;;;;5.77;3.57;;;;;;;7.21;100.00;97829.66;5072808;28;20253;-73
2023/10/23 05:43:34;;;;;;;7.27;3.80;;;;;;;7.32;100.00;97825.56;5073147;28;20280;-73
2023/10/23 05:46:03;;;;;;;6.13;3.77;;;;;;;7.35;100.00;97823.34;5073086;28;20303;-74
2023/10/23 05:48:30;;;;;;;7.90;3.70;;;;;;;7.33;100.00;97828.00;5072506;28;20250;-74
2023/10/23 05:51:03;;;;;;;7.20;3.90;;;;;;;7.45;100.00;97841.41;5076369;28;20234;-74
2023/10/23 05:53:30;;;;;;;8.17;4.23;;;;;;;7.53;100.00;97841.22;5076879;28;20279;-74
2023/10/23 05:56:07;;;;;;;8.20;4.00;;;;;;;7.40;100.00;97841.22;5076835;28;20663;-73
2023/10/23 05:58:34;;;;;;;9.63;4.80;;;;;;;7.27;100.00;97854.44;5077310;28;20311;-73
2023/10/23 06:01:05;;;;;;;7.93;3.87;;;;;;;7.33;100.00;97861.59;5076819;28;20212;-74
2023/10/23 06:03:31;;;;;;;7.63;4.40;;;;;;;7.31;100.00;97863.59;5076694;28;20205;-74
2023/10/23 06:05:58;;;;;;;9.27;4.33;;;;;;;7.22;100.00;97865.63;5076619;28;20211;-74
2023/10/23 06:08:24;;;;;;;8.20;3.80;;;;;;;7.31;100.00;97858.31;5076358;28;20221;-74
2023/10/23 06:10:50;;;;;;;9.57;4.30;;;;;;;7.35;100.00;97854.25;5076660;28;20200;-73
2023/10/23 06:13:17;;;;;;;9.43;4.20;;;;;;;7.35;100.00;97856.88;5076611;28;20200;-73
2023/10/23 06:15:44;;;;;;;8.67;4.67;;;;;;;7.41;100.00;97856.88;5076565;28;20208;-73
2023/10/23 06:18:10;;;;;;;8.47;4.50;;;;;;;7.49;100.00;97846.13;5076255;28;20562;-73
2023/10/23 06:20:37;;;;;;;7.60;4.00;;;;;;;7.52;100.00;97855.47;5076250;28;20227;-73
2023/10/23 06:23:04;;;;;;;10.00;4.03;;;;;;;7.55;100.00;97855.88;5079974;28;20608;-73
2023/10/23 06:25:32;;;;;;;9.60;4.40;;;;;;;7.57;100.00;97859.13;5076212;28;20606;-73
2023/10/23 06:27:59;;;;;;;7.07;4.13;;;;;;;7.61;100.00;97846.31;5076080;28;20392;-73
2023/10/23 06:30:26;;;;;;;8.40;4.27;;;;;;;7.47;100.00;97842.84;5075619;28;20220;-74
2023/10/23 06:32:52;;;;;;;8.40;4.10;;;;;;;7.43;100.00;97851.41;5075498;28;20211;-73
2023/10/23 06:35:18;;;;;;;10.03;4.03;;;;;;;7.51;100.00;97848.56;5075723;28;20822;-74
2023/10/23 06:37:45;;;;;;;7.73;4.00;;;;;;;7.58;100.00;97850.19;5075448;28;20228;-74
2023/10/23 06:40:11;;;;;;;8.17;4.60;;;;;;;7.59;100.00;97843.84;5075882;28;20322;-74
2023/10/23 06:42:38;;;;;;;7.40;4.00;;;;;;;7.71;100.00;97846.69;5075523;28;20640;-74
2023/10/23 06:45:05;;;;;;;6.63;3.93;;;;;;;7.78;100.00;97844.88;5075743;28;20200;-74
2023/10/23 06:47:31;;;;;;;8.23;4.00;;;;;;;7.95;100.00;97846.03;5075976;28;20626;-74
2023/10/23 06:49:59;;;;;;;8.20;4.17;;;;;;;7.98;100.00;97846.44;5075869;28;20658;-74
2023/10/23 06:52:26;;;;;;;12.03;4.40;;;;;;;8.05;100.00;97846.44;5076169;28;20216;-74
2023/10/23 06:54:52;;;;;;;9.00;4.00;;;;;;;8.14;100.00;97845.19;5075623;28;20209;-73
2023/10/23 06:57:18;;;;;;;10.77;4.90;;;;;;;8.07;100.00;97847.03;5075444;28;20235;-73
2023/10/23 06:59:45;;;;;;;6.70;4.03;;;;;;;8.02;100.00;97836.25;5075217;28;20205;-74
2023/10/23 07:02:11;;;;;;;11.47;5.23;;;;;;;8.00;100.00;97836.44;5074753;28;20185;-74
2023/10/23 07:04:38;;;;;;;7.70;4.30;;;;;;;8.18;100.00;97827.84;5075535;28;20208;-74
2023/10/23 07:07:04;;;;;;;11.17;4.50;;;;;;;8.22;100.00;97829.06;5075660;28;20223;-74
2023/10/23 07:09:31;;;;;;;14.13;5.30;;;;;;;8.12;100.00;97813.63;5075840;28;20295;-74
2023/10/23 07:11:58;;;;;;;11.10;4.93;;;;;;;8.08;100.00;97814.22;5075574;28;20216;-75
2023/10/23 07:14:24;;;;;;;10.03;5.17;;;;;;;8.24;100.00;97822.53;5075192;28;20208;-74
2023/10/23 07:16:50;;;;;;;10.10;4.77;;;;;;;8.36;100.00;97822.69;5075152;28;20700;-74
2023/10/23 07:19:17;;;;;;;10.73;4.67;;;;;;;8.36;100.00;97814.75;5074853;28;20229;-74
2023/10/23 07:21:44;;;;;;;8.97;4.50;;;;;;;8.33;100.00;97818.63;5075033;28;20216;-74
2023/10/23 07:24:10;;;;;;;9.53;4.20;;;;;;;8.36;100.00;97820.06;5075127;28;20672;-74
2023/10/23 07:26:36;;;;;;;7.13;4.30;;;;;;;8.38;100.00;97818.03;5075266;28;20231;-74
2023/10/23 07:29:03;;;;;;;9.70;4.40;;;;;;;8.46;100.00;97813.28;5075285;28;20220;-74
2023/10/23 07:31:29;;;;;;;10.20;4.57;;;;;;;8.46;100.00;97813.28;5075455;28;20211;-74
2023/10/23 07:33:56;;;;;;;9.37;4.07;;;;;;;8.52;100.00;97811.63;5075449;28;20204;-74
2023/10/23 07:36:22;;;;;;;9.43;4.50;;;;;;;8.55;100.00;97801.41;5075006;28;20208;-74
2023/10/23 07:38:49;;;;;;;7.90;3.57;;;;;;;8.57;100.00;97795.91;5075279;28;20228;-74
2023/10/23 07:41:15;;;;;;;7.80;3.93;;;;;;;8.61;100.00;97795.28;5074879;28;20650;-74
2023/10/23 07:43:43;;;;;;;9.40;4.03;;;;;;;8.65;100.00;97801.75;5074638;28;20693;-74
2023/10/23 07:46:10;;;;;;;4.70;3.10;;;;;;;8.70;100.00;97803.78;5074749;28;20304;-74
2023/10/23 07:48:37;;;;;;;8.83;3.77;;;;;;;8.81;100.00;97805.75;5074881;28;20224;-74
2023/10/23 07:51:04;;;;;;;9.83;3.53;;;;;;;8.78;100.00;97806.19;5075037;28;20573;-74
2023/10/23 07:53:31;;;;;;;8.53;3.37;;;;;;;8.74;100.00;97805.00;5075060;28;20204;-74
2023/10/23 07:55:57;;;;;;;7.30;3.47;;;;;;;8.85;100.00;97806.94;5074922;28;20200;-74
2023/10/23 07:58:24;;;;;;;5.63;3.20;;;;;;;8.73;100.00;97798.88;5074588;28;20237;-74
2023/10/23 08:00:51;;;;;;;8.97;3.53;;;;;;;8.80;100.00;97799.66;5074366;28;20212;-74
2023/10/23 08:03:18;;;;;;;8.20;3.57;;;;;;;8.89;100.00;97794.91;5074435;28;20679;-74
2023/10/23 08:05:44;;;;;;;10.07;4.00;;;;;;;8.98;100.00;97789.13;5074280;28;20295;-74
2023/10/23 08:08:11;;;;;;;8.97;3.63;;;;;;;8.94;100.00;97785.28;5074584;28;20227;-74
2023/10/23 08:10:37;;;;;;;5.97;3.20;;;;;;;8.99;100.00;97787.28;5074543;28;20215;-74
2023/10/23 08:13:03;;;;;;;6.97;3.20;;;;;;;9.06;100.00;97783.53;5074195;28;20211;-74
2023/10/23 08:15:30;;;;;;;12.37;3.63;;;;;;;9.11;100.00;97785.56;5074234;28;20208;-74
2023/10/23 08:17:56;;;;;;;6.80;3.37;;;;;;;9.22;100.00;97783.03;5074351;28;20242;-74
2023/10/23 08:20:22;;;;;;;8.03;3.47;;;;;;;9.29;100.00;97775.84;5074496;28;20204;-74
2023/10/23 08:22:50;;;;;;;6.87;3.30;;;;;;;9.42;100.00;97778.34;5074475;28;20231;-74
2023/10/23 08:25:16;;;;;;;7.97;3.33;;;;;;;9.46;100.00;97773.44;5074445;28;20208;-74
2023/10/23 08:27:43;;;;;;;5.67;3.10;;;;;;;9.50;100.00;97770.09;5074334;28;20244;-74
2023/10/23 08:30:10;;;;;;;7.27;3.53;;;;;;;9.46;100.00;97778.75;5074280;28;20215;-74
2023/10/23 08:32:36;;;;;;;5.90;3.67;;;;;;;9.52;100.00;97780.50;5074399;28;20303;-74
2023/10/23 08:35:03;;;;;;;9.07;3.40;;;;;;;9.58;100.00;97777.78;5073924;28;20208;-74
2023/10/23 08:37:29;;;;;;;8.73;3.53;;;;;;;9.61;100.00;97774.72;5074260;28;20239;-74
2023/10/23 08:39:55;;;;;;;6.50;3.47;;;;;;;9.69;100.00;97776.25;5074159;28;20307;-74
2023/10/23 08:42:22;;;;;;;7.13;3.40;;;;;;;9.64;100.00;97781.41;5074173;28;20209;-74
2023/10/23 08:44:51;;;;;;;8.10;3.80;;;;;;;9.59;100.00;97787.38;5073999;28;20215;-74
2023/10/23 08:47:17;;;;;;;7.07;3.60;;;;;;;9.67;100.00;97796.88;5073602;28;20217;-74
2023/10/23 08:49:44;;;;;;;6.10;3.87;;;;;;;9.93;100.00;97797.44;5074482;28;20205;-74
2023/10/23 08:52:11;;;;;;;6.23;3.63;;;;;;;10.00;100.00;97798.16;5073825;28;20211;-74
2023/10/23 08:54:39;;;;;;;6.57;3.37;;;;;;;10.05;100.00;97774.44;5073614;28;20204;-74
2023/10/23 08:57:07;;;;;;;9.73;3.80;;;;;;;10.04;100.00;97771.97;5072990;28;20235;-74
2023/10/23 08:59:33;;;;;;;7.20;3.30;;;;;;;10.04;100.00;97783.44;5055130;28;20209;-74
2023/10/23 09:02:00;;;;;;;9.27;4.07;;;;;;;10.13;100.00;97783.94;5073355;28;20583;-74
2023/10/23 09:04:26;;;;;;;6.87;3.40;;;;;;;10.28;100.00;97784.41;5073732;28;20208;-74
2023/10/23 09:06:55;;;;;;;8.57;3.33;;;;;;;10.30;100.00;97779.66;5074035;28;20200;-74
2023/10/23 09:09:24;;;;;;;12.17;4.17;;;;;;;10.54;100.00;97776.09;5072996;28;20668;-74
2023/10/23 09:11:50;;;;;;;5.10;3.23;;;;;;;10.40;100.00;97771.97;5073203;28;20208;-74
2023/10/23 09:14:28;;;;;;;6.27;3.73;;;;;;;10.44;100.00;97763.34;5073377;28;20208;-74
2023/10/23 09:16:59;;;;;;;7.87;4.27;;;;;;;10.48;100.00;97756.53;5073420;28;20188;-74
2023/10/23 09:19:27;;;;;;;11.23;3.70;;;;;;;10.43;100.00;97760.91;5073465;28;20200;-74
2023/10/23 09:21:56;;;;;;;8.60;3.63;;;;;;;10.51;100.00;97761.38;5073415;28;20258;-74
2023/10/23 09:24:23;;;;;;;6.67;3.67;;;;;;;10.54;100.00;97755.63;5072781;28;20207;-74
2023/10/23 09:26:51;;;;;;;11.00;3.87;;;;;;;10.50;100.00;97751.78;5073279;28;20287;-74
2023/10/23 09:29:25;;;;;;;8.53;3.37;;;;;;;10.72;100.00;97754.75;5073237;28;20231;-74
2023/10/23 09:31:53;;;;;;;8.80;4.07;;;;;;;10.74;100.00;97758.81;5072732;28;20662;-74
2023/10/23 09:34:21;;;;;;;9.07;4.10;;;;;;;10.61;100.00;97761.66;5073454;28;20291;-74
2023/10/23 09:36:50;;;;;;;10.13;4.00;;;;;;;10.70;100.00;97762.97;5073368;28;20211;-74
2023/10/23 09:39:21;;;;;;;8.47;4.13;;;;;;;10.82;100.00;97769.13;5072782;28;20234;-74
2023/10/23 09:41:47;;;;;;;9.60;4.27;;;;;;;10.65;100.00;97765.50;5074077;28;20193;-74
2023/10/23 09:44:15;;;;;;;7.77;3.93;;;;;;;10.65;100.00;97765.50;5073142;28;20211;-74
2023/10/23 09:46:42;;;;;;;8.43;4.07;;;;;;;10.73;100.00;97767.03;5072941;28;20204;-74
2023/10/23 09:49:09;;;;;;;13.00;4.40;;;;;;;10.74;100.00;97768.63;5073358;28;20221;-74
2023/10/23 09:51:40;;;;;;;11.57;4.53;;;;;;;10.74;100.00;97776.63;5073063;28;20212;-74
2023/10/23 09:54:14;;;;;;;10.80;5.07;;;;;;;10.74;100.00;97763.31;5073167;28;20211;-74
2023/10/23 09:56:41;;;;;;;8.43;4.10;;;;;;;10.75;100.00;97772.91;5072771;28;20632;-74
2023/10/23 09:59:09;;;;;;;6.73;4.10;;;;;;;10.83;100.00;97777.91;5072530;28;20229;-74
2023/10/23 10:01:43;;;;;;;10.20;4.27;;;;;;;10.87;100.00;97779.09;5072697;28;20219;-74
2023/10/23 10:04:34;;;;;;;8.83;4.23;;;;;;;10.71;100.00;97777.88;5072904;28;20189;-74
2023/10/23 10:07:27;;;;;;;8.80;4.17;;;;;;;10.75;100.00;97772.91;5072464;28;20619;-74
2023/10/23 10:09:55;;;;;;;8.27;4.10;;;;;;;10.81;100.00;97764.03;5072739;28;20200;-74
2023/10/23 10:12:22;;;;;;;9.03;3.93;;;;;;;10.90;100.00;97765.31;5072871;28;20288;-74
2023/10/23 10:14:48;;;;;;;7.47;4.30;;;;;;;10.98;100.00;97757.00;5072700;28;20239;-74
2023/10/23 10:17:19;;;;;;;7.33;4.00;;;;;;;10.93;100.00;97751.56;5072777;28;20235;-74
2023/10/23 10:19:46;;;;;;;10.00;4.27;;;;;;;11.00;100.00;97754.97;5072493;28;20613;-74
2023/10/23 10:22:21;;;;;;;9.10;4.77;;;;;;;11.05;100.00;97744.44;5072837;28;20211;-74
2023/10/23 10:24:49;;;;;;;12.93;4.60;;;;;;;11.18;100.00;97744.22;5073009;28;20239;-74
2023/10/23 10:27:15;;;;;;;11.93;4.47;;;;;;;11.18;100.00;97741.56;5072542;28;20306;-74
2023/10/23 10:29:42;;;;;;;9.90;4.67;;;;;;;11.29;100.00;97738.09;5072198;28;20223;-74
2023/10/23 10:32:10;;;;;;;12.63;4.63;;;;;;;11.32;100.00;97733.09;5072385;28;20207;-74
2023/10/23 10:34:39;;;;;;;12.43;5.13;;;;;;;11.43;100.00;97725.38;5072191;28;20581;-74
2023/10/23 10:37:07;;;;;;;11.67;6.90;;;;;;;11.36;100.00;97716.69;5075828;28;20202;-74
2023/10/23 10:39:50;;;;;;;12.30;5.53;;;;;;;11.39;100.00;97714.38;5075977;28;20243;-74
2023/10/23 10:42:28;;;;;;;9.60;4.50;;;;;;;11.46;100.00;97709.75;5076321;28;20216;-74
2023/10/23 10:45:19;;;;;;;11.50;4.47;;;;;;;11.45;100.00;97702.00;5076128;28;20211;-74
2023/10/23 10:47:52;;;;;;;13.97;4.27;;;;;;;11.51;100.00;97709.84;5075890;28;20589;-74
2023/10/23 10:50:33;;;;;;;9.20;4.47;;;;;;;11.57;100.00;97708.13;5075875;28;20423;-74
2023/10/23 10:53:04;;;;;;;9.00;4.40;;;;;;;11.55;100.00;97705.69;5076254;28;20443;-74
2023/10/23 10:55:32;;;;;;;9.93;4.53;;;;;;;11.59;100.00;97692.72;5076089;28;20204;-74
2023/10/23 10:57:59;;;;;;;12.33;4.00;;;;;;;11.74;100.00;97691.22;5075812;28;20224;-74
2023/10/23 11:00:33;;;;;;;10.60;4.57;;;;;;;11.62;100.00;97679.75;5075450;28;20586;-74
2023/10/23 11:03:00;;;;;;;10.07;3.90;;;;;;;11.71;100.00;97680.22;5075880;28;20198;-74
2023/10/23 11:05:26;;;;;;;6.40;3.60;;;;;;;11.78;100.00;97680.88;5075844;28;20559;-74
2023/10/23 11:07:52;;;;;;;8.97;3.80;;;;;;;11.79;100.00;97678.00;5075382;28;20239;-74
2023/10/23 11:10:20;;;;;;;6.73;3.60;;;;;;;11.87;100.00;97669.66;5075725;28;20209;-74
2023/10/23 11:12:47;;;;;;;8.07;4.50;;;;;;;12.05;100.00;97666.81;5076052;28;20610;-74
2023/10/23 11:15:15;;;;;;;10.00;3.70;;;;;;;12.08;100.00;97660.19;5075619;28;20230;-74
2023/10/23 11:17:41;;;;;;;6.17;3.70;;;;;;;12.10;100.00;97658.91;5075515;28;20625;-74
2023/10/23 11:20:10;;;;;;;6.77;3.63;;;;;;;12.20;100.00;97648.44;5075477;28;20667;-74
2023/10/23 11:22:39;;;;;;;7.23;3.57;;;;;;;12.23;100.00;97637.31;5075607;28;20256;-74
2023/10/23 11:25:08;;;;;;;7.27;3.80;;;;;;;12.28;100.00;97633.91;5075683;28;20204;-74
2023/10/23 11:27:35;;;;;;;5.20;3.07;;;;;;;12.38;100.00;97623.44;5075576;28;20224;-74
2023/10/23 11:30:03;;;;;;;6.93;3.20;;;;;;;12.24;100.00;97617.59;5075305;28;20210;-74
2023/10/23 11:32:30;;;;;;;6.37;3.50;;;;;;;12.26;100.00;97610.16;5075252;28;20220;-74